Time;durP1;ratioP1;P1;durP2;ratioP2;P2;SDS_P1;SDS_P2;PMS_P1;PMS_P2;Temp;Humidity;BMP_temperature;BMP_pressure;BME280_temperature;BME280_humidity;BME280_pressure;Samples;Min_cycle;Max_cycle;Signal;HPM_P1;HPM_P2
2022/10/02 00:02:15;;;;;;;7.93;2.33;;;;;;;;;;5111550;27;20208;-64
2022/10/02 00:04:43;;;;;;;3.90;2.20;;;;;;;;;;5082048;28;20336;-67
2022/10/02 00:07:11;;;;;;;8.43;1.90;;;;;;;;;;5117368;27;20932;-68
2022/10/02 00:09:41;;;;;;;6.00;1.90;;;;;;;;;;5092486;28;20259;-68
2022/10/02 00:12:11;;;;;;;5.93;1.80;;;;;;;;;;5079216;28;20228;-67
2022/10/02 00:14:39;;;;;;;7.63;1.67;;;;;;;;;;5099430;28;20894;-66
2022/10/02 00:17:10;;;;;;;6.80;2.23;;;;;;;;;;5084775;27;20223;-65
2022/10/02 00:19:37;;;;;;;8.60;2.27;;;;;;;;;;5102709;27;20255;-64
2022/10/02 00:22:14;;;;;;;6.13;1.83;;;;;;;;;;5091571;27;20287;-65
2022/10/02 00:24:45;;;;;;;5.17;1.40;;;;;;;;;;5103632;27;21586;-66
2022/10/02 00:27:22;;;;;;;5.67;1.70;;;;;;;;;;5080694;27;20291;-65
2022/10/02 00:29:55;;;;;;;7.30;1.73;;;;;;;;;;5091200;27;20230;-68
2022/10/02 00:32:43;;;;;;;7.93;1.83;;;;;;;;;;5097773;27;20204;-66
2022/10/02 00:35:14;;;;;;;7.70;1.80;;;;;;;;;;5104176;27;20709;-65
2022/10/02 00:37:53;;;;;;;8.07;1.70;;;;;;;;;;5085098;28;20211;-65
2022/10/02 00:40:39;;;;;;;6.47;1.87;;;;;;;;;;5087485;27;20218;-66
2022/10/02 00:43:10;;;;;;;7.77;1.87;;;;;;;;;;5083561;27;20208;-66
2022/10/02 00:45:44;;;;;;;5.53;2.00;;;;;;;;;;5082620;28;20227;-65
2022/10/02 00:48:14;;;;;;;8.27;2.23;;;;;;;;;;5079774;28;20693;-64
2022/10/02 00:50:51;;;;;;;5.03;1.80;;;;;;;;;;5096466;27;20297;-64
2022/10/02 00:53:37;;;;;;;7.30;2.03;;;;;;;;;;5120335;27;20217;-64
2022/10/02 00:56:04;;;;;;;10.83;1.90;;;;;;;;;;5084857;27;20307;-63
2022/10/02 00:58:31;;;;;;;8.47;2.10;;;;;;;;;;5096385;27;20200;-66
2022/10/02 01:01:19;;;;;;;4.97;1.60;;;;;;;;;;5075407;28;20692;-65
2022/10/02 01:03:55;;;;;;;4.67;1.67;;;;;;;;;;5079836;27;20494;-68
2022/10/02 01:06:24;;;;;;;7.00;2.10;;;;;;;;;;5083923;28;20227;-64
2022/10/02 01:08:51;;;;;;;4.17;1.50;;;;;;;;;;5102074;27;20269;-67
2022/10/02 01:11:19;;;;;;;7.20;1.97;;;;;;;;;;5084408;27;20615;-66
2022/10/02 01:13:47;;;;;;;7.83;1.80;;;;;;;;;;5100517;27;20563;-65
2022/10/02 01:16:15;;;;;;;4.53;1.50;;;;;;;;;;5080541;28;20313;-63
2022/10/02 01:18:44;;;;;;;5.87;2.00;;;;;;;;;;5118935;27;20213;-66
2022/10/02 01:21:24;;;;;;;7.30;1.90;;;;;;;;;;5089077;27;20689;-67
2022/10/02 01:23:56;;;;;;;4.10;1.93;;;;;;;;;;5084130;27;20208;-65
2022/10/02 01:26:24;;;;;;;10.43;2.03;;;;;;;;;;5078155;28;20226;-67
2022/10/02 01:28:51;;;;;;;3.73;1.63;;;;;;;;;;5092315;28;20246;-68
2022/10/02 01:31:20;;;;;;;6.93;1.70;;;;;;;;;;5105584;27;20246;-67
2022/10/02 01:33:48;;;;;;;6.03;1.63;;;;;;;;;;5107528;27;20211;-67
2022/10/02 01:36:16;;;;;;;4.80;1.53;;;;;;;;;;5087974;27;20251;-66
2022/10/02 01:38:44;;;;;;;4.60;1.63;;;;;;;;;;5085321;28;20564;-67
2022/10/02 01:41:11;;;;;;;4.53;1.63;;;;;;;;;;5071684;27;20685;-65
2022/10/02 01:43:44;;;;;;;5.10;1.70;;;;;;;;;;5072834;28;20208;-64
2022/10/02 01:46:26;;;;;;;4.23;1.60;;;;;;;;;;5075919;28;20227;-65
2022/10/02 01:48:53;;;;;;;6.67;1.70;;;;;;;;;;5110208;27;20236;-65
2022/10/02 01:51:20;;;;;;;5.33;1.53;;;;;;;;;;5083847;28;20204;-66
2022/10/02 01:53:56;;;;;;;4.47;1.50;;;;;;;;;;5090837;27;20589;-66
2022/10/02 01:56:36;;;;;;;8.47;2.07;;;;;;;;;;5110549;27;20298;-67
2022/10/02 01:59:24;;;;;;;5.27;1.73;;;;;;;;;;5090595;28;20209;-65
2022/10/02 02:02:10;;;;;;;5.97;1.87;;;;;;;;;;5058487;27;20207;-64
2022/10/02 02:04:50;;;;;;;2.73;1.70;;;;;;;;;;5082565;28;20208;-65
2022/10/02 02:07:34;;;;;;;6.13;1.80;;;;;;;;;;5076072;27;20342;-66
2022/10/02 02:10:07;;;;;;;4.90;1.70;;;;;;;;;;5079785;28;20686;-68
2022/10/02 02:13:07;;;;;;;5.40;1.43;;;;;;;;;;5086732;27;20196;-66
2022/10/02 02:15:38;;;;;;;7.27;1.60;;;;;;;;;;5029410;27;20223;-68
2022/10/02 02:18:32;;;;;;;4.93;1.63;;;;;;;;;;5088882;27;20205;-65
2022/10/02 02:21:03;;;;;;;7.03;1.87;;;;;;;;;;5083973;27;20310;-66
2022/10/02 02:23:33;;;;;;;5.77;2.03;;;;;;;;;;5099648;27;20286;-68
2022/10/02 02:26:04;;;;;;;5.80;1.83;;;;;;;;;;5083207;27;20768;-68
2022/10/02 02:28:32;;;;;;;6.03;1.77;;;;;;;;;;5086828;27;20224;-67
2022/10/02 02:31:01;;;;;;;6.60;1.73;;;;;;;;;;5077097;28;20291;-67
2022/10/02 02:33:52;;;;;;;6.03;1.50;;;;;;;;;;5076437;28;20205;-65
2022/10/02 02:36:22;;;;;;;6.17;1.73;;;;;;;;;;5072834;28;20225;-64
2022/10/02 02:38:51;;;;;;;4.70;1.70;;;;;;;;;;5096017;27;20208;-65
2022/10/02 02:41:21;;;;;;;5.63;1.80;;;;;;;;;;5080762;27;20385;-68
2022/10/02 02:43:54;;;;;;;3.30;1.53;;;;;;;;;;5075444;28;20214;-67
2022/10/02 02:47:02;;;;;;;9.73;1.83;;;;;;;;;;5073264;28;20254;-65
2022/10/02 02:49:29;;;;;;;6.53;1.83;;;;;;;;;;5087077;27;20374;-65
2022/10/02 02:51:59;;;;;;;5.90;1.80;;;;;;;;;;5075078;27;20199;-69
2022/10/02 02:54:31;;;;;;;3.33;1.60;;;;;;;;;;5080061;28;20952;-64
2022/10/02 02:57:00;;;;;;;8.43;1.90;;;;;;;;;;5080104;27;20250;-66
2022/10/02 02:59:30;;;;;;;5.70;1.90;;;;;;;;;;5073482;28;20501;-64
2022/10/02 03:01:57;;;;;;;4.17;1.47;;;;;;;;;;5070300;27;20215;-66
2022/10/02 03:04:25;;;;;;;6.50;1.60;;;;;;;;;;5083206;28;20212;-66
2022/10/02 03:06:56;;;;;;;6.37;1.70;;;;;;;;;;5075894;28;20702;-68
2022/10/02 03:09:23;;;;;;;2.90;1.50;;;;;;;;;;5082952;27;20269;-68
2022/10/02 03:11:51;;;;;;;7.43;1.60;;;;;;;;;;5074352;28;20208;-65
2022/10/02 03:14:21;;;;;;;6.10;1.40;;;;;;;;;;5071266;28;20208;-65
2022/10/02 03:17:13;;;;;;;6.57;2.10;;;;;;;;;;5076822;28;20294;-67
2022/10/02 03:19:52;;;;;;;3.17;1.93;;;;;;;;;;5073880;28;20216;-64
2022/10/02 03:22:28;;;;;;;6.47;1.87;;;;;;;;;;5074144;28;20208;-65
2022/10/02 03:24:58;;;;;;;5.30;1.50;;;;;;;;;;5077984;28;20269;-68
2022/10/02 03:27:29;;;;;;;6.77;1.87;;;;;;;;;;5072667;28;20595;-68
2022/10/02 03:30:01;;;;;;;7.13;2.00;;;;;;;;;;5068830;28;20195;-65
2022/10/02 03:32:29;;;;;;;5.93;1.77;;;;;;;;;;5075482;28;20283;-68
2022/10/02 03:34:57;;;;;;;5.10;1.50;;;;;;;;;;5071473;28;20201;-64
2022/10/02 03:37:25;;;;;;;5.27;1.57;;;;;;;;;;5074856;28;20665;-67
2022/10/02 03:39:52;;;;;;;4.60;1.77;;;;;;;;;;5092204;27;20332;-66
2022/10/02 03:42:24;;;;;;;6.43;1.63;;;;;;;;;;5073926;28;20253;-67
2022/10/02 03:44:52;;;;;;;6.40;1.70;;;;;;;;;;5075738;28;20217;-68
2022/10/02 03:47:19;;;;;;;5.10;1.77;;;;;;;;;;5079422;28;20257;-66
2022/10/02 03:49:46;;;;;;;3.47;1.50;;;;;;;;;;5086871;28;20224;-67
2022/10/02 03:52:18;;;;;;;5.57;1.57;;;;;;;;;;5084572;28;20201;-69
2022/10/02 03:54:46;;;;;;;3.43;1.40;;;;;;;;;;5081683;27;20296;-65
2022/10/02 03:57:20;;;;;;;9.23;1.80;;;;;;;;;;5090242;28;20223;-68
2022/10/02 04:00:01;;;;;;;4.37;1.40;;;;;;;;;;5081954;28;20222;-65
2022/10/02 04:02:35;;;;;;;3.33;1.67;;;;;;;;;;5099761;28;20200;-66
2022/10/02 04:05:11;;;;;;;5.60;1.93;;;;;;;;;;5092972;28;20200;-64
2022/10/02 04:07:40;;;;;;;5.47;1.70;;;;;;;;;;5088389;28;20244;-65
2022/10/02 04:10:13;;;;;;;5.33;1.73;;;;;;;;;;5125102;27;20206;-66
2022/10/02 04:12:46;;;;;;;6.50;1.80;;;;;;;;;;5079434;28;20239;-65
2022/10/02 04:15:20;;;;;;;7.25;1.98;;;;;;;;;;5116920;27;20262;-65
2022/10/02 04:17:58;;;;;;;5.90;1.50;;;;;;;;;;5092603;28;20374;-65
2022/10/02 04:20:32;;;;;;;7.83;1.90;;;;;;;;;;5080030;28;20303;-65
2022/10/02 04:23:06;;;;;;;5.73;1.83;;;;;;;;;;5077943;28;20204;-65
2022/10/02 04:25:36;;;;;;;6.23;1.60;;;;;;;;;;5081660;28;20243;-66
2022/10/02 04:28:13;;;;;;;6.67;1.73;;;;;;;;;;5090299;28;20220;-66
2022/10/02 04:30:41;;;;;;;4.63;1.77;;;;;;;;;;5083034;28;20231;-68
2022/10/02 04:33:11;;;;;;;3.33;1.50;;;;;;;;;;5121859;27;20232;-66
2022/10/02 04:35:57;;;;;;;7.57;1.90;;;;;;;;;;5075860;28;20434;-66
2022/10/02 04:38:40;;;;;;;7.47;1.60;;;;;;;;;;5095522;28;20238;-65
2022/10/02 04:41:26;;;;;;;5.07;1.90;;;;;;;;;;5115826;27;20367;-68
2022/10/02 04:44:06;;;;;;;5.90;1.53;;;;;;;;;;5075840;28;20911;-65
2022/10/02 04:46:36;;;;;;;5.30;1.70;;;;;;;;;;5074279;28;20306;-64
2022/10/02 04:49:07;;;;;;;5.40;1.73;;;;;;;;;;5088585;28;20335;-66
2022/10/02 04:51:37;;;;;;;4.17;1.60;;;;;;;;;;5071161;28;20201;-66
2022/10/02 04:54:34;;;;;;;7.17;1.83;;;;;;;;;;5080386;28;20304;-66
2022/10/02 04:57:34;;;;;;;5.80;1.87;;;;;;;;;;4991073;28;20229;-67
2022/10/02 05:00:01;;;;;;;7.17;1.77;;;;;;;;;;5029041;28;20200;-65
2022/10/02 05:02:55;;;;;;;6.50;2.43;;;;;;;;;;5077543;28;20204;-68
2022/10/02 05:05:28;;;;;;;8.37;2.20;;;;;;;;;;5073964;27;20228;-65
2022/10/02 05:07:55;;;;;;;6.07;1.63;;;;;;;;;;5075328;28;20199;-66
2022/10/02 05:10:41;;;;;;;5.00;1.60;;;;;;;;;;5092000;27;20201;-65
2022/10/02 05:13:11;;;;;;;4.40;1.40;;;;;;;;;;5078648;27;20281;-65
2022/10/02 05:15:51;;;;;;;8.43;2.00;;;;;;;;;;5077698;27;20216;-67
2022/10/02 05:18:33;;;;;;;5.60;1.73;;;;;;;;;;5075537;27;20203;-67
2022/10/02 05:21:06;;;;;;;4.57;1.53;;;;;;;;;;5085397;28;20246;-67
2022/10/02 05:23:39;;;;;;;3.10;1.87;;;;;;;;;;5108369;27;20254;-66
2022/10/02 05:26:19;;;;;;;3.83;1.40;;;;;;;;;;5112164;27;20231;-68
2022/10/02 05:28:59;;;;;;;6.67;1.40;;;;;;;;;;5077779;28;20244;-65
2022/10/02 05:31:35;;;;;;;7.23;1.80;;;;;;;;;;5104190;27;20210;-68
2022/10/02 05:34:13;;;;;;;6.87;1.90;;;;;;;;;;5072334;27;20204;-66
2022/10/02 05:36:49;;;;;;;5.47;1.70;;;;;;;;;;5083752;27;20229;-67
2022/10/02 05:39:19;;;;;;;5.70;1.63;;;;;;;;;;5085077;27;20208;-65
2022/10/02 05:41:46;;;;;;;4.90;1.53;;;;;;;;;;5066874;27;20205;-67
2022/10/02 05:44:19;;;;;;;4.77;1.57;;;;;;;;;;5079879;27;20560;-68
2022/10/02 05:46:53;;;;;;;2.20;1.37;;;;;;;;;;5096669;27;20227;-68
2022/10/02 05:49:24;;;;;;;3.20;1.50;;;;;;;;;;5085323;27;20243;-68
2022/10/02 05:51:56;;;;;;;5.37;1.70;;;;;;;;;;5081790;28;20204;-65
2022/10/02 05:54:24;;;;;;;4.90;1.90;;;;;;;;;;5078655;28;20200;-65
2022/10/02 05:56:56;;;;;;;3.03;1.30;;;;;;;;;;5081922;28;20693;-66
2022/10/02 05:59:26;;;;;;;5.10;1.80;;;;;;;;;;5074986;28;20228;-67
2022/10/02 06:01:54;;;;;;;5.10;1.50;;;;;;;;;;5087012;27;20203;-66
2022/10/02 06:04:35;;;;;;;5.23;1.70;;;;;;;;;;5085820;28;20839;-66
2022/10/02 06:07:07;;;;;;;6.30;1.70;;;;;;;;;;5082566;27;20701;-63
2022/10/02 06:09:36;;;;;;;7.90;1.83;;;;;;;;;;5077621;27;20232;-66
2022/10/02 06:12:19;;;;;;;4.37;1.57;;;;;;;;;;5112828;27;20196;-66
2022/10/02 06:14:49;;;;;;;4.90;1.60;;;;;;;;;;5082054;27;20223;-64
2022/10/02 06:17:20;;;;;;;5.23;1.80;;;;;;;;;;5086396;27;20204;-67
2022/10/02 06:19:55;;;;;;;6.13;1.73;;;;;;;;;;5118091;27;20199;-68
2022/10/02 06:22:48;;;;;;;4.40;1.50;;;;;;;;;;5110602;27;20217;-66
2022/10/02 06:25:20;;;;;;;2.93;1.57;;;;;;;;;;5080457;27;20225;-65
2022/10/02 06:28:11;;;;;;;5.60;1.73;;;;;;;;;;5080925;28;20213;-67
2022/10/02 06:30:41;;;;;;;6.83;1.83;;;;;;;;;;5065476;28;20245;-66
2022/10/02 06:33:15;;;;;;;12.07;4.37;;;;;;;;;;5066245;28;20211;-67
2022/10/02 06:36:02;;;;;;;11.03;5.30;;;;;;;;;;5069437;27;20220;-66
2022/10/02 06:38:29;;;;;;;10.57;6.73;;;;;;;;;;5066123;28;20214;-66
2022/10/02 06:41:18;;;;;;;8.37;5.10;;;;;;;;;;5103941;27;20253;-67
2022/10/02 06:43:45;;;;;;;9.57;6.10;;;;;;;;;;5079552;27;20258;-67
2022/10/02 06:46:32;;;;;;;4.73;2.97;;;;;;;;;;5075425;28;20299;-66
2022/10/02 06:49:21;;;;;;;4.77;2.80;;;;;;;;;;5115443;27;20279;-65
2022/10/02 06:52:07;;;;;;;5.30;2.13;;;;;;;;;;5051900;27;20200;-66
2022/10/02 06:54:47;;;;;;;6.60;2.90;;;;;;;;;;5077427;27;20296;-66
2022/10/02 06:57:17;;;;;;;5.43;2.60;;;;;;;;;;5088209;27;20571;-65
2022/10/02 07:00:17;;;;;;;6.73;3.37;;;;;;;;;;5078529;28;20204;-66
2022/10/02 07:02:53;;;;;;;5.17;2.13;;;;;;;;;;5049732;28;20222;-68
2022/10/02 07:05:39;;;;;;;6.00;1.90;;;;;;;;;;5095315;27;20716;-67
2022/10/02 07:08:10;;;;;;;2.87;1.53;;;;;;;;;;5073075;28;20208;-66
2022/10/02 07:10:51;;;;;;;5.78;2.65;;;;;;;;;;5095255;27;20662;-67
2022/10/02 07:13:37;;;;;;;4.47;2.23;;;;;;;;;;5083576;27;20207;-65
2022/10/02 07:16:17;;;;;;;7.50;1.60;;;;;;;;;;5075552;28;20220;-68
2022/10/02 07:18:44;;;;;;;2.88;1.83;;;;;;;;;;5070646;27;20208;-66
2022/10/02 07:21:15;;;;;;;4.88;2.05;;;;;;;;;;5080001;28;20855;-68
2022/10/02 07:24:01;;;;;;;3.13;1.40;;;;;;;;;;5080319;28;20476;-67
2022/10/02 07:26:45;;;;;;;7.38;1.60;;;;;;;;;;5093380;27;20711;-66
2022/10/02 07:29:36;;;;;;;3.50;1.30;;;;;;;;;;5088571;27;20224;-67
2022/10/02 07:32:04;;;;;;;3.57;1.27;;;;;;;;;;5067650;28;20204;-66
2022/10/02 07:34:38;;;;;;;5.47;1.77;;;;;;;;;;5068960;28;20283;-68
2022/10/02 07:37:14;;;;;;;10.88;2.15;;;;;;;;;;5068782;28;20682;-68
2022/10/02 07:39:57;;;;;;;2.80;1.40;;;;;;;;;;5064652;28;20568;-67
2022/10/02 07:42:43;;;;;;;3.33;1.75;;;;;;;;;;5053091;28;20218;-67
2022/10/02 07:45:10;;;;;;;4.13;2.80;;;;;;;;;;5056577;28;20224;-68
2022/10/02 07:47:41;;;;;;;5.05;1.38;;;;;;;;;;5059911;28;20219;-68
2022/10/02 07:50:11;;;;;;;3.47;1.67;;;;;;;;;;5082661;28;20227;-65
2022/10/02 07:53:02;;;;;;;3.95;3.20;;;;;;;;;;5043674;28;20205;-67
2022/10/02 07:55:29;;;;;;;3.25;1.65;;;;;;;;;;5048547;28;20795;-68
2022/10/02 07:58:03;;;;;;;4.20;1.40;;;;;;;;;;5052724;28;20698;-69
2022/10/02 08:00:31;;;;;;;3.55;1.70;;;;;;;;;;5061829;28;20221;-67
2022/10/02 08:03:08;;;;;;;3.10;1.65;;;;;;;;;;5043867;28;21626;-69
2022/10/02 08:05:45;;;;;;;5.93;1.80;;;;;;;;;;5050839;28;20224;-67
2022/10/02 08:08:12;;;;;;;3.47;1.58;;;;;;;;;;5054970;28;21238;-68
2022/10/02 08:10:43;;;;;;;3.40;1.52;;;;;;;;;;5057009;28;20311;-67
2022/10/02 08:13:19;;;;;;;2.58;1.50;;;;;;;;;;5053114;28;20220;-67
2022/10/02 08:15:51;;;;;;;2.03;1.48;;;;;;;;;;5072836;28;20235;-69
2022/10/02 08:18:27;;;;;;;3.97;1.42;;;;;;;;;;5075257;28;20285;-68
2022/10/02 08:21:05;;;;;;;3.17;1.10;;;;;;;;;;5063925;28;20218;-68
2022/10/02 08:23:38;;;;;;;2.53;1.33;;;;;;;;;;5077139;28;20620;-66
2022/10/02 08:26:21;;;;;;;2.92;1.50;;;;;;;;;;5070358;28;21115;-68
2022/10/02 08:29:04;;;;;;;4.75;1.77;;;;;;;;;;5066676;28;20247;-65
2022/10/02 08:31:31;;;;;;;2.33;1.98;;;;;;;;;;5051369;28;21339;-65
2022/10/02 08:34:06;;;;;;;2.45;1.73;;;;;;;;;;5056701;28;20210;-68
2022/10/02 08:36:49;;;;;;;3.75;2.35;;;;;;;;;;5072282;28;20233;-68
2022/10/02 08:39:17;;;;;;;2.17;1.30;;;;;;;;;;5082954;27;20213;-66
2022/10/02 08:41:53;;;;;;;2.97;1.40;;;;;;;;;;5044864;28;20232;-67
2022/10/02 08:44:42;;;;;;;2.40;1.35;;;;;;;;;;5054643;28;20858;-68
2022/10/02 08:47:10;;;;;;;3.22;1.27;;;;;;;;;;5072109;27;20252;-67
2022/10/02 08:49:56;;;;;;;2.67;1.20;;;;;;;;;;5049341;27;20358;-68
2022/10/02 08:52:30;;;;;;;1.67;0.90;;;;;;;;;;5077647;27;20207;-68
2022/10/02 08:55:16;;;;;;;2.78;1.50;;;;;;;;;;5058724;28;20204;-66
2022/10/02 08:58:02;;;;;;;0.68;0.68;;;;;;;;;;5061533;28;20700;-67
2022/10/02 09:00:45;;;;;;;2.17;0.70;;;;;;;;;;5061491;27;20212;-67
2022/10/02 09:03:33;;;;;;;0.63;0.50;;;;;;;;;;5097169;27;20215;-66
2022/10/02 09:06:02;;;;;;;0.50;0.50;;;;;;;;;;5094338;27;20729;-67
2022/10/02 09:08:56;;;;;;;1.10;0.70;;;;;;;;;;5061538;28;20262;-67
2022/10/02 09:11:53;;;;;;;0.40;0.40;;;;;;;;;;5062061;27;20308;-64
2022/10/02 09:14:27;;;;;;;0.50;0.50;;;;;;;;;;5095311;27;20295;-66
2022/10/02 09:17:23;;;;;;;0.40;0.40;;;;;;;;;;5110879;27;20216;-66
2022/10/02 09:20:10;;;;;;;0.75;0.38;;;;;;;;;;5087232;28;20220;-65
2022/10/02 09:22:49;;;;;;;0.93;0.43;;;;;;;;;;5107483;27;20618;-66
2022/10/02 09:25:29;;;;;;;0.80;0.40;;;;;;;;;;5090995;27;20738;-66
2022/10/02 09:28:16;;;;;;;0.55;0.40;;;;;;;;;;5093464;28;20688;-67
2022/10/02 09:30:53;;;;;;;0.40;0.40;;;;;;;;;;5089202;28;20224;-67
2022/10/02 09:33:26;;;;;;;1.38;0.60;;;;;;;;;;5121288;27;20253;-66
2022/10/02 09:36:12;;;;;;;0.40;0.40;;;;;;;;;;5089326;28;20259;-66
2022/10/02 09:38:42;;;;;;;0.85;0.50;;;;;;;;;;5087935;28;20200;-66
2022/10/02 09:41:28;;;;;;;1.08;0.40;;;;;;;;;;5118562;27;20208;-66
2022/10/02 09:43:58;;;;;;;1.08;0.60;;;;;;;;;;5093555;28;20586;-67
2022/10/02 09:46:52;;;;;;;0.55;0.55;;;;;;;;;;5090056;28;20410;-67
2022/10/02 09:49:35;;;;;;;0.60;0.60;;;;;;;;;;5094817;27;20227;-67
2022/10/02 09:52:02;;;;;;;0.30;0.30;;;;;;;;;;5111376;27;20295;-67
2022/10/02 09:55:09;;;;;;;0.68;0.60;;;;;;;;;;5097285;27;20207;-67
2022/10/02 09:57:42;;;;;;;0.95;0.50;;;;;;;;;;4998227;28;20320;-67
2022/10/02 10:00:15;;;;;;;0.50;0.50;;;;;;;;;;4998369;28;20653;-67
2022/10/02 10:02:42;;;;;;;1.25;1.05;;;;;;;;;;5041228;28;20642;-67
2022/10/02 10:05:10;;;;;;;1.00;0.50;;;;;;;;;;5101243;27;20240;-67
2022/10/02 10:07:45;;;;;;;3.03;1.42;;;;;;;;;;5083160;28;20224;-66
2022/10/02 10:10:19;;;;;;;1.08;0.85;;;;;;;;;;5093956;28;20743;-65
2022/10/02 10:12:58;;;;;;;2.38;1.85;;;;;;;;;;5103040;28;20302;-66
2022/10/02 10:15:45;;;;;;;0.50;0.50;;;;;;;;;;5092931;27;20627;-66
2022/10/02 10:18:31;;;;;;;1.30;0.50;;;;;;;;;;5083181;28;20261;-65
2022/10/02 10:21:04;;;;;;;1.05;0.77;;;;;;;;;;5131493;27;20579;-65
2022/10/02 10:23:35;;;;;;;0.68;0.50;;;;;;;;;;5107874;28;20299;-67
2022/10/02 10:26:03;;;;;;;0.57;0.40;;;;;;;;;;5087127;28;20358;-67
2022/10/02 10:28:32;;;;;;;0.50;0.50;;;;;;;;;;5076611;27;20212;-66
2022/10/02 10:31:20;;;;;;;2.40;0.55;;;;;;;;;;5070776;28;20231;-67
2022/10/02 10:34:15;;;;;;;0.52;0.50;;;;;;;;;;5074364;28;20204;-67
2022/10/02 10:40:04;;;;;;;0.65;0.65;;;;;;;;;;5096049;27;20589;-67
2022/10/02 10:42:50;;;;;;;0.30;0.30;;;;;;;;;;5092607;27;20228;-67
2022/10/02 10:45:52;;;;;;;1.30;0.35;;;;;;;;;;5091401;28;20227;-66
2022/10/02 10:48:39;;;;;;;0.40;0.40;;;;;;;;;;5092429;28;20204;-67
2022/10/02 10:51:33;;;;;;;0.80;0.80;;;;;;;;;;5109032;27;20593;-66
2022/10/02 10:54:07;;;;;;;0.32;0.32;;;;;;;;;;5087353;28;20593;-67
2022/10/02 10:56:35;;;;;;;0.28;0.28;;;;;;;;;;5084065;28;20222;-66
2022/10/02 10:59:22;;;;;;;1.20;0.43;;;;;;;;;;5086369;28;20209;-66
2022/10/02 11:01:58;;;;;;;0.30;0.30;;;;;;;;;;5083666;27;20212;-67
2022/10/02 11:04:46;;;;;;;0.88;0.73;;;;;;;;;;5080950;27;20235;-66
2022/10/02 11:07:21;;;;;;;1.00;0.40;;;;;;;;;;5074390;28;20222;-67
2022/10/02 11:09:49;;;;;;;0.80;0.80;;;;;;;;;;5059470;27;20232;-65
2022/10/02 11:12:43;;;;;;;1.17;0.75;;;;;;;;;;5052890;27;20204;-66
2022/10/02 11:15:29;;;;;;;0.52;0.32;;;;;;;;;;5079869;27;20347;-64
2022/10/02 11:18:00;;;;;;;0.35;0.35;;;;;;;;;;5082067;27;20189;-64
2022/10/02 11:20:36;;;;;;;0.30;0.30;;;;;;;;;;5096199;27;20239;-65
2022/10/02 11:23:04;;;;;;;0.98;0.40;;;;;;;;;;5076761;28;21059;-66
2022/10/02 11:25:51;;;;;;;0.30;0.30;;;;;;;;;;5069125;28;20226;-66
2022/10/02 11:28:28;;;;;;;0.30;0.30;;;;;;;;;;5080496;27;20207;-66
2022/10/02 11:31:16;;;;;;;0.40;0.40;;;;;;;;;;5078209;28;20234;-66
2022/10/02 11:34:10;;;;;;;0.32;0.32;;;;;;;;;;5091053;27;20205;-65
2022/10/02 11:36:51;;;;;;;0.73;0.43;;;;;;;;;;5097332;27;20606;-65
2022/10/02 11:39:38;;;;;;;0.68;0.32;;;;;;;;;;5107541;27;20200;-66
2022/10/02 11:42:11;;;;;;;0.40;0.40;;;;;;;;;;5078866;28;20197;-67
2022/10/02 11:44:48;;;;;;;0.65;0.60;;;;;;;;;;5068471;28;20204;-68
2022/10/02 11:47:27;;;;;;;1.73;0.80;;;;;;;;;;5066996;28;20211;-66
2022/10/02 11:50:13;;;;;;;1.58;1.48;;;;;;;;;;5077162;28;20232;-66
2022/10/02 11:52:43;;;;;;;1.27;0.50;;;;;;;;;;5071503;28;20204;-66
2022/10/02 11:55:21;;;;;;;1.65;1.50;;;;;;;;;;5065610;28;20242;-66
2022/10/02 11:58:03;;;;;;;0.50;0.50;;;;;;;;;;5079154;28;20700;-67
2022/10/02 12:00:34;;;;;;;0.85;0.60;;;;;;;;;;5066287;28;20218;-67
2022/10/02 12:03:09;;;;;;;1.08;1.00;;;;;;;;;;5067548;28;20216;-68
2022/10/02 12:05:46;;;;;;;0.63;0.63;;;;;;;;;;5069216;28;20285;-67
2022/10/02 12:08:28;;;;;;;0.60;0.60;;;;;;;;;;5082900;28;20625;-64
2022/10/02 12:11:01;;;;;;;0.52;0.52;;;;;;;;;;5096609;27;20220;-67
2022/10/02 12:13:45;;;;;;;0.52;0.52;;;;;;;;;;5058423;27;20745;-68
2022/10/02 12:16:22;;;;;;;0.43;0.43;;;;;;;;;;5075616;27;20308;-67
2022/10/02 12:18:50;;;;;;;0.55;0.55;;;;;;;;;;5089074;27;20739;-66
2022/10/02 12:27:29;;;;;;;0.70;0.55;;;;;;;;;;5082316;27;20234;-69
2022/10/02 12:29:58;;;;;;;0.50;0.50;;;;;;;;;;5050950;28;20231;-67
2022/10/02 12:32:29;;;;;;;0.45;0.45;;;;;;;;;;5075884;28;20193;-66
2022/10/02 12:35:16;;;;;;;0.40;0.40;;;;;;;;;;5078691;27;20191;-69
2022/10/02 12:37:47;;;;;;;0.32;0.32;;;;;;;;;;5075035;28;20196;-67
2022/10/02 12:40:18;;;;;;;0.38;0.38;;;;;;;;;;5072479;28;20658;-68
2022/10/02 12:42:48;;;;;;;0.50;0.50;;;;;;;;;;5082573;28;20257;-66
2022/10/02 12:45:34;;;;;;;1.15;0.40;;;;;;;;;;5084624;28;20310;-66
2022/10/02 12:48:11;;;;;;;0.40;0.40;;;;;;;;;;5077571;27;20220;-66
2022/10/02 12:51:04;;;;;;;0.60;0.40;;;;;;;;;;5077999;28;20352;-67
2022/10/02 12:53:51;;;;;;;0.55;0.30;;;;;;;;;;5078363;28;20206;-65
2022/10/02 12:56:30;;;;;;;0.68;0.50;;;;;;;;;;5077383;28;20220;-67
2022/10/02 12:59:11;;;;;;;0.50;0.50;;;;;;;;;;5071280;27;20224;-66
2022/10/02 13:01:39;;;;;;;0.50;0.50;;;;;;;;;;5082465;28;20245;-67
2022/10/02 13:04:36;;;;;;;0.32;0.32;;;;;;;;;;5073040;27;20710;-67
2022/10/02 13:07:16;;;;;;;0.95;0.55;;;;;;;;;;5072182;28;20755;-67
2022/10/02 13:09:49;;;;;;;1.33;0.50;;;;;;;;;;5091766;27;20200;-65
2022/10/02 13:12:35;;;;;;;0.40;0.40;;;;;;;;;;5081834;27;20210;-66
2022/10/02 13:15:05;;;;;;;0.57;0.57;;;;;;;;;;5085511;28;20279;-67
2022/10/02 13:17:45;;;;;;;1.95;0.60;;;;;;;;;;5071556;28;20550;-67
2022/10/02 13:20:23;;;;;;;1.50;0.90;;;;;;;;;;5091349;27;20291;-66
2022/10/02 13:22:58;;;;;;;0.60;0.60;;;;;;;;;;5077482;28;20903;-65
2022/10/02 13:25:35;;;;;;;2.25;0.70;;;;;;;;;;5067977;28;20350;-65
2022/10/02 13:28:03;;;;;;;1.20;0.70;;;;;;;;;;5075889;27;20227;-66
2022/10/02 13:30:34;;;;;;;0.60;0.60;;;;;;;;;;5072146;27;20243;-65
2022/10/02 13:33:22;;;;;;;0.50;0.50;;;;;;;;;;5079150;28;20295;-66
2022/10/02 13:35:58;;;;;;;0.55;0.50;;;;;;;;;;5071011;28;20328;-66
2022/10/02 13:38:34;;;;;;;1.10;0.70;;;;;;;;;;5076799;27;20207;-68
2022/10/02 13:41:12;;;;;;;0.50;0.50;;;;;;;;;;5103082;27;20216;-65
2022/10/02 13:44:00;;;;;;;0.50;0.50;;;;;;;;;;5073953;28;20219;-65
2022/10/02 13:46:28;;;;;;;0.45;0.45;;;;;;;;;;5069790;28;20293;-67
2022/10/02 13:49:14;;;;;;;0.50;0.50;;;;;;;;;;5075080;28;20211;-65
2022/10/02 13:52:01;;;;;;;0.45;0.45;;;;;;;;;;5097340;27;20265;-67
2022/10/02 13:54:28;;;;;;;0.50;0.50;;;;;;;;;;5085923;27;20214;-66
2022/10/02 13:57:17;;;;;;;0.30;0.30;;;;;;;;;;5075220;28;20216;-67
2022/10/02 13:59:56;;;;;;;0.32;0.30;;;;;;;;;;5052635;28;20197;-67
2022/10/02 14:02:37;;;;;;;0.30;0.30;;;;;;;;;;5079356;27;20319;-66
2022/10/02 14:05:06;;;;;;;0.40;0.40;;;;;;;;;;5070388;28;20290;-65
2022/10/02 14:07:35;;;;;;;0.50;0.50;;;;;;;;;;5103082;27;20296;-66
2022/10/02 14:10:22;;;;;;;0.50;0.50;;;;;;;;;;5075563;28;20219;-68
2022/10/02 14:12:52;;;;;;;2.00;0.47;;;;;;;;;;5070296;28;20296;-66
2022/10/02 14:15:25;;;;;;;0.40;0.40;;;;;;;;;;5071201;28;20224;-66
2022/10/02 14:17:56;;;;;;;0.50;0.50;;;;;;;;;;5071227;28;20207;-67
2022/10/02 14:20:35;;;;;;;1.60;0.70;;;;;;;;;;5074124;28;20611;-65
2022/10/02 14:23:21;;;;;;;1.85;0.63;;;;;;;;;;5092648;27;20215;-65
2022/10/02 14:25:58;;;;;;;0.43;0.40;;;;;;;;;;5065091;28;21206;-66
2022/10/02 14:28:33;;;;;;;0.30;0.30;;;;;;;;;;5064354;27;20295;-69
2022/10/02 14:31:13;;;;;;;0.40;0.40;;;;;;;;;;5062606;27;21010;-66
2022/10/02 14:33:40;;;;;;;0.43;0.30;;;;;;;;;;5059052;28;23433;-67
2022/10/02 14:36:08;;;;;;;0.30;0.30;;;;;;;;;;5054603;28;20314;-67
2022/10/02 14:38:53;;;;;;;1.42;1.42;;;;;;;;;;5061664;28;20569;-66
2022/10/02 14:41:39;;;;;;;4.93;2.05;;;;;;;;;;5076386;27;20574;-64
2022/10/02 14:44:22;;;;;;;2.40;2.20;;;;;;;;;;5057793;28;20204;-67
2022/10/02 14:47:01;;;;;;;4.93;4.43;;;;;;;;;;5068080;28;20243;-68
2022/10/02 14:49:55;;;;;;;1.80;1.70;;;;;;;;;;5067671;27;20688;-65
2022/10/02 14:52:42;;;;;;;0.70;0.70;;;;;;;;;;5069540;27;21719;-68
2022/10/02 14:55:40;;;;;;;1.30;1.30;;;;;;;;;;5085757;27;20224;-66
2022/10/02 14:58:25;;;;;;;0.50;0.50;;;;;;;;;;5051083;28;20216;-66
2022/10/02 15:00:55;;;;;;;0.60;0.60;;;;;;;;;;5066702;28;20250;-67
2022/10/02 15:03:26;;;;;;;0.60;0.60;;;;;;;;;;5071026;28;20200;-67
2022/10/02 15:06:13;;;;;;;0.30;0.30;;;;;;;;;;5088806;27;20254;-66
2022/10/02 15:08:44;;;;;;;1.55;0.40;;;;;;;;;;5065666;27;20207;-70
2022/10/02 15:11:25;;;;;;;0.50;0.50;;;;;;;;;;5094350;27;20924;-67
2022/10/02 15:13:57;;;;;;;1.90;1.80;;;;;;;;;;5069729;27;20206;-68
2022/10/02 15:19:25;;;;;;;0.38;0.38;;;;;;;;;;5094120;27;20226;-67
2022/10/02 15:21:53;;;;;;;0.40;0.40;;;;;;;;;;5080042;28;20200;-67
2022/10/02 15:24:39;;;;;;;0.30;0.30;;;;;;;;;;5080923;28;20562;-67
2022/10/02 15:27:19;;;;;;;0.80;0.80;;;;;;;;;;5073836;28;20228;-67
2022/10/02 15:29:50;;;;;;;0.50;0.50;;;;;;;;;;5067164;28;20302;-67
2022/10/02 15:32:33;;;;;;;0.50;0.50;;;;;;;;;;5070570;27;20231;-68
2022/10/02 15:35:10;;;;;;;0.50;0.50;;;;;;;;;;5063556;27;20371;-68
2022/10/02 15:37:41;;;;;;;0.45;0.45;;;;;;;;;;5064528;28;20219;-66
2022/10/02 15:40:12;;;;;;;0.60;0.60;;;;;;;;;;5095118;27;20234;-67
2022/10/02 15:42:40;;;;;;;0.70;0.70;;;;;;;;;;5074777;28;20268;-66
2022/10/02 15:45:34;;;;;;;0.60;0.60;;;;;;;;;;5086543;28;20555;-67
2022/10/02 15:48:02;;;;;;;0.60;0.60;;;;;;;;;;5081638;28;20211;-67
2022/10/02 15:50:39;;;;;;;0.80;0.80;;;;;;;;;;5088214;27;20196;-67
2022/10/02 15:53:07;;;;;;;0.60;0.60;;;;;;;;;;5079357;28;20200;-69